sensor_id;sensor_type;location;lat;lon;timestamp;temperature;humidity
32787;DHT22;19139;49.372;8.580;2022-08-01T00:00:43;26.20;83.70
32787;DHT22;19139;49.372;8.580;2022-08-01T00:03:15;26.30;83.80
32787;DHT22;19139;49.372;8.580;2022-08-01T00:05:47;26.30;83.80
32787;DHT22;19139;49.372;8.580;2022-08-01T00:08:19;26.30;83.90
32787;DHT22;19139;49.372;8.580;2022-08-01T00:10:50;26.30;83.80
32787;DHT22;19139;49.372;8.580;2022-08-01T00:13:22;26.30;83.90
32787;DHT22;19139;49.372;8.580;2022-08-01T00:15:53;26.30;83.90
32787;DHT22;19139;49.372;8.580;2022-08-01T00:18:20;26.30;83.80
32787;DHT22;19139;49.372;8.580;2022-08-01T00:20:47;26.30;83.90
32787;DHT22;19139;49.372;8.580;2022-08-01T00:23:13;26.30;83.90
32787;DHT22;19139;49.372;8.580;2022-08-01T00:25:40;26.30;83.90
32787;DHT22;19139;49.372;8.580;2022-08-01T00:28:06;26.30;83.90
32787;DHT22;19139;49.372;8.580;2022-08-01T00:30:35;26.30;83.90
32787;DHT22;19139;49.372;8.580;2022-08-01T00:33:02;26.30;83.90
32787;DHT22;19139;49.372;8.580;2022-08-01T00:35:29;26.30;83.90
32787;DHT22;19139;49.372;8.580;2022-08-01T00:37:55;26.30;83.90
32787;DHT22;19139;49.372;8.580;2022-08-01T00:40:22;26.30;83.90
32787;DHT22;19139;49.372;8.580;2022-08-01T00:42:54;26.30;84.80
32787;DHT22;19139;49.372;8.580;2022-08-01T00:45:25;26.30;83.90
32787;DHT22;19139;49.372;8.580;2022-08-01T00:47:57;26.30;83.90
32787;DHT22;19139;49.372;8.580;2022-08-01T00:50:24;26.30;83.90
32787;DHT22;19139;49.372;8.580;2022-08-01T00:52:55;26.30;84.00
32787;DHT22;19139;49.372;8.580;2022-08-01T00:55:24;26.30;83.90
32787;DHT22;19139;49.372;8.580;2022-08-01T00:57:51;26.30;83.90
32787;DHT22;19139;49.372;8.580;2022-08-01T01:00:29;26.30;84.00
32787;DHT22;19139;49.372;8.580;2022-08-01T01:02:59;26.30;84.00
32787;DHT22;19139;49.372;8.580;2022-08-01T01:05:25;26.30;84.80
32787;DHT22;19139;49.372;8.580;2022-08-01T01:08:07;26.30;84.00
32787;DHT22;19139;49.372;8.580;2022-08-01T01:10:47;26.30;84.00
32787;DHT22;19139;49.372;8.580;2022-08-01T01:13:23;26.30;84.00
32787;DHT22;19139;49.372;8.580;2022-08-01T01:16:03;26.30;83.90
32787;DHT22;19139;49.372;8.580;2022-08-01T01:18:52;26.30;84.00
32787;DHT22;19139;49.372;8.580;2022-08-01T01:29:25;26.30;84.00
32787;DHT22;19139;49.372;8.580;2022-08-01T01:31:59;26.30;83.90
32787;DHT22;19139;49.372;8.580;2022-08-01T01:34:31;26.30;84.00
32787;DHT22;19139;49.372;8.580;2022-08-01T01:37:02;26.40;84.10
32787;DHT22;19139;49.372;8.580;2022-08-01T01:39:30;26.30;84.00
32787;DHT22;19139;49.372;8.580;2022-08-01T01:41:58;26.30;84.00
32787;DHT22;19139;49.372;8.580;2022-08-01T01:44:31;26.30;84.00
32787;DHT22;19139;49.372;8.580;2022-08-01T01:46:59;26.30;84.00
32787;DHT22;19139;49.372;8.580;2022-08-01T01:49:32;26.30;83.90
32787;DHT22;19139;49.372;8.580;2022-08-01T01:52:01;26.30;83.90
32787;DHT22;19139;49.372;8.580;2022-08-01T01:54:33;26.30;83.90
32787;DHT22;19139;49.372;8.580;2022-08-01T01:57:07;26.30;84.00
32787;DHT22;19139;49.372;8.580;2022-08-01T01:59:41;26.30;84.00
32787;DHT22;19139;49.372;8.580;2022-08-01T02:02:13;26.40;84.00
32787;DHT22;19139;49.372;8.580;2022-08-01T02:04:44;26.30;84.00
32787;DHT22;19139;49.372;8.580;2022-08-01T02:07:14;26.40;84.00
32787;DHT22;19139;49.372;8.580;2022-08-01T02:09:43;26.40;84.10
32787;DHT22;19139;49.372;8.580;2022-08-01T02:12:11;26.40;84.00
32787;DHT22;19139;49.372;8.580;2022-08-01T02:14:39;26.40;84.00
32787;DHT22;19139;49.372;8.580;2022-08-01T02:17:12;26.40;84.00
32787;DHT22;19139;49.372;8.580;2022-08-01T02:19:42;26.30;84.00
32787;DHT22;19139;49.372;8.580;2022-08-01T02:22:16;26.30;84.00
32787;DHT22;19139;49.372;8.580;2022-08-01T02:25:06;26.40;84.10
32787;DHT22;19139;49.372;8.580;2022-08-01T02:27:54;26.40;84.00
32787;DHT22;19139;49.372;8.580;2022-08-01T02:30:24;26.40;84.10
32787;DHT22;19139;49.372;8.580;2022-08-01T02:32:57;26.40;84.10
32787;DHT22;19139;49.372;8.580;2022-08-01T02:35:34;26.30;84.00
32787;DHT22;19139;49.372;8.580;2022-08-01T02:38:24;26.40;84.10
32787;DHT22;19139;49.372;8.580;2022-08-01T02:40:52;26.40;84.10
32787;DHT22;19139;49.372;8.580;2022-08-01T02:43:21;26.40;84.10
32787;DHT22;19139;49.372;8.580;2022-08-01T02:46:02;26.40;84.10
32787;DHT22;19139;49.372;8.580;2022-08-01T02:48:30;26.40;84.10
32787;DHT22;19139;49.372;8.580;2022-08-01T02:51:01;26.40;84.10
32787;DHT22;19139;49.372;8.580;2022-08-01T02:53:32;26.30;84.00
32787;DHT22;19139;49.372;8.580;2022-08-01T02:56:10;26.40;84.10
32787;DHT22;19139;49.372;8.580;2022-08-01T02:58:38;26.40;84.10
32787;DHT22;19139;49.372;8.580;2022-08-01T03:01:06;26.40;84.10
32787;DHT22;19139;49.372;8.580;2022-08-01T03:03:35;26.40;84.20
32787;DHT22;19139;49.372;8.580;2022-08-01T03:06:06;26.40;84.20
32787;DHT22;19139;49.372;8.580;2022-08-01T03:08:39;26.40;84.10
32787;DHT22;19139;49.372;8.580;2022-08-01T03:11:12;26.40;84.20
32787;DHT22;19139;49.372;8.580;2022-08-01T03:13:41;26.40;84.20
32787;DHT22;19139;49.372;8.580;2022-08-01T03:16:09;26.40;84.20
32787;DHT22;19139;49.372;8.580;2022-08-01T03:18:43;26.40;84.20
32787;DHT22;19139;49.372;8.580;2022-08-01T03:21:19;26.40;85.00
32787;DHT22;19139;49.372;8.580;2022-08-01T03:23:47;26.40;84.20
32787;DHT22;19139;49.372;8.580;2022-08-01T03:26:21;26.40;84.20
32787;DHT22;19139;49.372;8.580;2022-08-01T03:28:48;26.40;84.20
32787;DHT22;19139;49.372;8.580;2022-08-01T03:31:21;26.40;84.20
32787;DHT22;19139;49.372;8.580;2022-08-01T03:33:48;26.40;84.20
32787;DHT22;19139;49.372;8.580;2022-08-01T03:36:25;26.40;84.20
32787;DHT22;19139;49.372;8.580;2022-08-01T03:38:57;26.40;84.20
32787;DHT22;19139;49.372;8.580;2022-08-01T03:41:27;26.40;84.20
32787;DHT22;19139;49.372;8.580;2022-08-01T03:44:03;26.40;84.20
32787;DHT22;19139;49.372;8.580;2022-08-01T03:46:43;26.40;84.20
32787;DHT22;19139;49.372;8.580;2022-08-01T03:49:28;26.40;84.20
32787;DHT22;19139;49.372;8.580;2022-08-01T03:52:02;26.40;84.20
32787;DHT22;19139;49.372;8.580;2022-08-01T03:54:42;26.40;84.20
32787;DHT22;19139;49.372;8.580;2022-08-01T03:57:10;26.40;84.20
32787;DHT22;19139;49.372;8.580;2022-08-01T03:59:42;26.40;84.30
32787;DHT22;19139;49.372;8.580;2022-08-01T04:02:09;26.40;84.30
32787;DHT22;19139;49.372;8.580;2022-08-01T04:04:42;26.40;84.20
32787;DHT22;19139;49.372;8.580;2022-08-01T04:07:26;26.40;84.30
32787;DHT22;19139;49.372;8.580;2022-08-01T04:09:58;26.40;84.30
32787;DHT22;19139;49.372;8.580;2022-08-01T04:12:30;26.40;84.30
32787;DHT22;19139;49.372;8.580;2022-08-01T04:15:02;26.40;84.30
32787;DHT22;19139;49.372;8.580;2022-08-01T04:17:29;26.40;84.30
32787;DHT22;19139;49.372;8.580;2022-08-01T04:20:01;26.40;84.40
32787;DHT22;19139;49.372;8.580;2022-08-01T04:22:27;26.40;84.30
32787;DHT22;19139;49.372;8.580;2022-08-01T04:24:55;26.40;84.30
32787;DHT22;19139;49.372;8.580;2022-08-01T04:27:29;26.40;84.30
32787;DHT22;19139;49.372;8.580;2022-08-01T04:30:18;26.40;84.30
32787;DHT22;19139;49.372;8.580;2022-08-01T04:32:47;26.40;84.30
32787;DHT22;19139;49.372;8.580;2022-08-01T04:35:16;26.40;84.30
32787;DHT22;19139;49.372;8.580;2022-08-01T04:38:04;26.40;84.40
32787;DHT22;19139;49.372;8.580;2022-08-01T04:40:32;26.40;84.30
32787;DHT22;19139;49.372;8.580;2022-08-01T04:43:02;26.40;84.40
32787;DHT22;19139;49.372;8.580;2022-08-01T04:45:29;26.40;84.40
32787;DHT22;19139;49.372;8.580;2022-08-01T04:47:57;26.40;84.40
32787;DHT22;19139;49.372;8.580;2022-08-01T04:50:24;26.40;84.40
32787;DHT22;19139;49.372;8.580;2022-08-01T04:52:50;26.40;84.40
32787;DHT22;19139;49.372;8.580;2022-08-01T04:55:18;26.40;84.40
32787;DHT22;19139;49.372;8.580;2022-08-01T04:57:49;26.40;84.40
32787;DHT22;19139;49.372;8.580;2022-08-01T05:00:21;26.40;84.40
32787;DHT22;19139;49.372;8.580;2022-08-01T05:02:47;26.40;84.50
32787;DHT22;19139;49.372;8.580;2022-08-01T05:05:19;26.40;84.50
32787;DHT22;19139;49.372;8.580;2022-08-01T05:07:52;26.40;84.50
32787;DHT22;19139;49.372;8.580;2022-08-01T05:10:18;26.40;84.50
32787;DHT22;19139;49.372;8.580;2022-08-01T05:12:50;26.40;84.50
32787;DHT22;19139;49.372;8.580;2022-08-01T05:15:21;26.40;84.50
32787;DHT22;19139;49.372;8.580;2022-08-01T05:17:48;26.40;84.50
32787;DHT22;19139;49.372;8.580;2022-08-01T05:20:20;26.40;84.60
32787;DHT22;19139;49.372;8.580;2022-08-01T05:22:51;26.40;84.60
32787;DHT22;19139;49.372;8.580;2022-08-01T05:25:19;26.40;84.60
32787;DHT22;19139;49.372;8.580;2022-08-01T05:28:05;26.30;84.50
32787;DHT22;19139;49.372;8.580;2022-08-01T05:30:32;26.40;84.60
32787;DHT22;19139;49.372;8.580;2022-08-01T05:32:59;26.40;84.60
32787;DHT22;19139;49.372;8.580;2022-08-01T05:35:25;26.40;84.70
32787;DHT22;19139;49.372;8.580;2022-08-01T05:38:12;26.40;84.70
32787;DHT22;19139;49.372;8.580;2022-08-01T05:40:40;26.40;84.70
32787;DHT22;19139;49.372;8.580;2022-08-01T05:43:12;26.40;84.80
32787;DHT22;19139;49.372;8.580;2022-08-01T05:45:38;26.40;84.80
32787;DHT22;19139;49.372;8.580;2022-08-01T05:48:10;26.40;84.80
32787;DHT22;19139;49.372;8.580;2022-08-01T05:50:37;26.40;84.70
32787;DHT22;19139;49.372;8.580;2022-08-01T05:53:03;26.40;84.70
32787;DHT22;19139;49.372;8.580;2022-08-01T05:55:30;26.40;84.70
32787;DHT22;19139;49.372;8.580;2022-08-01T05:58:02;26.40;84.70
32787;DHT22;19139;49.372;8.580;2022-08-01T06:00:28;26.40;84.70
32787;DHT22;19139;49.372;8.580;2022-08-01T06:03:00;26.40;84.80
32787;DHT22;19139;49.372;8.580;2022-08-01T06:05:31;26.40;84.80
32787;DHT22;19139;49.372;8.580;2022-08-01T06:07:58;26.40;84.80
32787;DHT22;19139;49.372;8.580;2022-08-01T06:10:30;26.40;84.80
32787;DHT22;19139;49.372;8.580;2022-08-01T06:13:01;26.40;84.80
32787;DHT22;19139;49.372;8.580;2022-08-01T06:15:31;26.40;84.80
32787;DHT22;19139;49.372;8.580;2022-08-01T06:17:58;26.40;84.80
32787;DHT22;19139;49.372;8.580;2022-08-01T06:20:30;26.40;84.80
32787;DHT22;19139;49.372;8.580;2022-08-01T06:23:02;26.40;84.80
32787;DHT22;19139;49.372;8.580;2022-08-01T06:25:52;26.40;84.80
32787;DHT22;19139;49.372;8.580;2022-08-01T06:28:21;26.40;84.80
32787;DHT22;19139;49.372;8.580;2022-08-01T06:30:53;26.40;84.80
32787;DHT22;19139;49.372;8.580;2022-08-01T06:33:26;26.40;84.80
32787;DHT22;19139;49.372;8.580;2022-08-01T06:35:53;26.40;84.80
32787;DHT22;19139;49.372;8.580;2022-08-01T06:38:20;26.40;84.80
32787;DHT22;19139;49.372;8.580;2022-08-01T06:40:51;26.40;84.80
32787;DHT22;19139;49.372;8.580;2022-08-01T06:43:18;26.40;84.80
32787;DHT22;19139;49.372;8.580;2022-08-01T06:45:45;26.40;84.80
32787;DHT22;19139;49.372;8.580;2022-08-01T06:48:17;26.40;84.70
32787;DHT22;19139;49.372;8.580;2022-08-01T06:50:48;26.40;84.80
32787;DHT22;19139;49.372;8.580;2022-08-01T06:53:20;26.40;84.80
32787;DHT22;19139;49.372;8.580;2022-08-01T06:55:51;26.40;84.90
32787;DHT22;19139;49.372;8.580;2022-08-01T06:58:18;26.40;85.00
32787;DHT22;19139;49.372;8.580;2022-08-01T07:00:49;26.40;85.00
32787;DHT22;19139;49.372;8.580;2022-08-01T07:03:21;26.40;85.00
32787;DHT22;19139;49.372;8.580;2022-08-01T07:05:48;26.40;85.00
32787;DHT22;19139;49.372;8.580;2022-08-01T07:08:15;26.40;84.90
32787;DHT22;19139;49.372;8.580;2022-08-01T07:10:41;26.40;85.00
32787;DHT22;19139;49.372;8.580;2022-08-01T07:13:09;26.40;85.00
32787;DHT22;19139;49.372;8.580;2022-08-01T07:15:36;26.40;85.00
32787;DHT22;19139;49.372;8.580;2022-08-01T07:18:02;26.40;85.00
32787;DHT22;19139;49.372;8.580;2022-08-01T07:20:37;26.40;85.00
32787;DHT22;19139;49.372;8.580;2022-08-01T07:23:08;26.40;85.00
32787;DHT22;19139;49.372;8.580;2022-08-01T07:25:38;26.40;85.00
32787;DHT22;19139;49.372;8.580;2022-08-01T07:28:15;26.40;84.90
32787;DHT22;19139;49.372;8.580;2022-08-01T07:30:42;26.40;85.00
32787;DHT22;19139;49.372;8.580;2022-08-01T07:33:10;26.40;85.00
32787;DHT22;19139;49.372;8.580;2022-08-01T07:35:37;26.40;85.00
32787;DHT22;19139;49.372;8.580;2022-08-01T07:38:07;26.40;85.00
32787;DHT22;19139;49.372;8.580;2022-08-01T07:40:38;26.40;85.00
32787;DHT22;19139;49.372;8.580;2022-08-01T07:43:04;26.40;85.00
32787;DHT22;19139;49.372;8.580;2022-08-01T07:45:31;26.40;85.00
32787;DHT22;19139;49.372;8.580;2022-08-01T07:48:05;26.40;85.00
32787;DHT22;19139;49.372;8.580;2022-08-01T07:50:34;26.40;85.00
32787;DHT22;19139;49.372;8.580;2022-08-01T07:53:01;26.40;84.90
32787;DHT22;19139;49.372;8.580;2022-08-01T07:55:29;26.40;84.90
32787;DHT22;19139;49.372;8.580;2022-08-01T07:57:55;26.40;84.90
32787;DHT22;19139;49.372;8.580;2022-08-01T08:00:27;26.40;84.90
32787;DHT22;19139;49.372;8.580;2022-08-01T08:02:59;26.40;84.90
32787;DHT22;19139;49.372;8.580;2022-08-01T08:05:26;26.40;84.80
32787;DHT22;19139;49.372;8.580;2022-08-01T08:07:58;26.40;84.90
32787;DHT22;19139;49.372;8.580;2022-08-01T08:10:25;26.40;84.80
32787;DHT22;19139;49.372;8.580;2022-08-01T08:12:51;26.40;85.00
32787;DHT22;19139;49.372;8.580;2022-08-01T08:15:18;26.40;84.90
32787;DHT22;19139;49.372;8.580;2022-08-01T08:17:50;26.40;85.00
32787;DHT22;19139;49.372;8.580;2022-08-01T08:20:20;26.40;85.00
32787;DHT22;19139;49.372;8.580;2022-08-01T08:22:54;26.40;84.90
32787;DHT22;19139;49.372;8.580;2022-08-01T08:25:21;26.40;84.90
32787;DHT22;19139;49.372;8.580;2022-08-01T08:27:52;26.40;84.80
32787;DHT22;19139;49.372;8.580;2022-08-01T08:30:19;26.40;84.80
32787;DHT22;19139;49.372;8.580;2022-08-01T08:32:47;26.40;84.80
32787;DHT22;19139;49.372;8.580;2022-08-01T08:35:14;26.40;84.80
32787;DHT22;19139;49.372;8.580;2022-08-01T08:37:48;26.40;84.90
32787;DHT22;19139;49.372;8.580;2022-08-01T08:40:19;26.40;84.80
32787;DHT22;19139;49.372;8.580;2022-08-01T08:42:47;26.40;84.80
32787;DHT22;19139;49.372;8.580;2022-08-01T08:45:19;26.40;84.80
32787;DHT22;19139;49.372;8.580;2022-08-01T08:48:06;26.40;84.80
32787;DHT22;19139;49.372;8.580;2022-08-01T08:50:33;26.50;84.90
32787;DHT22;19139;49.372;8.580;2022-08-01T08:53:01;26.40;84.80
32787;DHT22;19139;49.372;8.580;2022-08-01T08:55:33;26.40;84.80
32787;DHT22;19139;49.372;8.580;2022-08-01T08:58:05;26.40;84.80
32787;DHT22;19139;49.372;8.580;2022-08-01T09:00:39;26.50;84.90
32787;DHT22;19139;49.372;8.580;2022-08-01T09:03:06;26.40;84.80
32787;DHT22;19139;49.372;8.580;2022-08-01T09:05:38;26.50;84.90
32787;DHT22;19139;49.372;8.580;2022-08-01T09:08:08;26.40;84.90
32787;DHT22;19139;49.372;8.580;2022-08-01T09:10:40;26.40;84.90
32787;DHT22;19139;49.372;8.580;2022-08-01T09:13:10;26.50;85.00
32787;DHT22;19139;49.372;8.580;2022-08-01T09:15:49;26.50;85.00
32787;DHT22;19139;49.372;8.580;2022-08-01T09:18:36;26.40;84.80
32787;DHT22;19139;49.372;8.580;2022-08-01T09:23:33;26.50;84.90
32787;DHT22;19139;49.372;8.580;2022-08-01T09:26:00;26.40;84.80
32787;DHT22;19139;49.372;8.580;2022-08-01T09:28:28;26.50;84.90
32787;DHT22;19139;49.372;8.580;2022-08-01T09:31:06;26.40;84.80
32787;DHT22;19139;49.372;8.580;2022-08-01T09:33:57;26.50;85.80
32787;DHT22;19139;49.372;8.580;2022-08-01T09:36:26;26.50;85.00
32787;DHT22;19139;49.372;8.580;2022-08-01T09:39:12;26.50;84.90
32787;DHT22;19139;49.372;8.580;2022-08-01T09:41:39;26.40;84.90
32787;DHT22;19139;49.372;8.580;2022-08-01T09:44:06;26.50;84.90
32787;DHT22;19139;49.372;8.580;2022-08-01T09:46:54;26.40;84.90
32787;DHT22;19139;49.372;8.580;2022-08-01T09:49:34;26.50;85.00
32787;DHT22;19139;49.372;8.580;2022-08-01T09:52:23;26.50;85.00
32787;DHT22;19139;49.372;8.580;2022-08-01T09:54:54;26.50;85.00
32787;DHT22;19139;49.372;8.580;2022-08-01T09:57:22;26.50;85.00
32787;DHT22;19139;49.372;8.580;2022-08-01T09:59:51;26.40;84.90
32787;DHT22;19139;49.372;8.580;2022-08-01T10:04:55;26.50;85.00
32787;DHT22;19139;49.372;8.580;2022-08-01T10:07:29;26.50;85.10
32787;DHT22;19139;49.372;8.580;2022-08-01T10:10:14;26.50;85.10
32787;DHT22;19139;49.372;8.580;2022-08-01T10:12:42;26.50;85.10
32787;DHT22;19139;49.372;8.580;2022-08-01T10:15:16;26.40;85.00
32787;DHT22;19139;49.372;8.580;2022-08-01T10:17:59;26.50;85.00
32787;DHT22;19139;49.372;8.580;2022-08-01T10:20:31;26.50;85.00
32787;DHT22;19139;49.372;8.580;2022-08-01T10:23:00;26.50;85.10
32787;DHT22;19139;49.372;8.580;2022-08-01T10:25:34;26.50;85.10
32787;DHT22;19139;49.372;8.580;2022-08-01T10:28:17;26.50;85.00
32787;DHT22;19139;49.372;8.580;2022-08-01T10:30:49;26.50;85.00
32787;DHT22;19139;49.372;8.580;2022-08-01T10:33:18;26.50;86.00
32787;DHT22;19139;49.372;8.580;2022-08-01T10:36:05;26.50;85.10
32787;DHT22;19139;49.372;8.580;2022-08-01T10:38:35;26.50;85.20
32787;DHT22;19139;49.372;8.580;2022-08-01T10:41:03;26.50;85.20
32787;DHT22;19139;49.372;8.580;2022-08-01T10:43:32;26.50;85.20
32787;DHT22;19139;49.372;8.580;2022-08-01T10:46:03;26.50;85.20
32787;DHT22;19139;49.372;8.580;2022-08-01T10:48:52;26.50;85.10
32787;DHT22;19139;49.372;8.580;2022-08-01T10:51:22;26.50;85.10
32787;DHT22;19139;49.372;8.580;2022-08-01T10:54:10;26.50;85.10
32787;DHT22;19139;49.372;8.580;2022-08-01T10:59:15;26.50;85.20
32787;DHT22;19139;49.372;8.580;2022-08-01T11:02:06;26.50;85.20
32787;DHT22;19139;49.372;8.580;2022-08-01T11:04:54;26.50;85.20
32787;DHT22;19139;49.372;8.580;2022-08-01T11:07:24;26.50;85.20
32787;DHT22;19139;49.372;8.580;2022-08-01T11:10:10;26.50;85.20
32787;DHT22;19139;49.372;8.580;2022-08-01T11:12:42;26.50;85.30
32787;DHT22;19139;49.372;8.580;2022-08-01T11:17:41;26.50;85.30
32787;DHT22;19139;49.372;8.580;2022-08-01T11:20:54;26.50;85.30
32787;DHT22;19139;49.372;8.580;2022-08-01T11:28:28;26.50;85.40
32787;DHT22;19139;49.372;8.580;2022-08-01T11:38:47;26.50;85.40
32787;DHT22;19139;49.372;8.580;2022-08-01T11:41:22;26.50;85.50
32787;DHT22;19139;49.372;8.580;2022-08-01T11:46:53;26.60;85.60
32787;DHT22;19139;49.372;8.580;2022-08-01T11:52:23;26.50;85.60
32787;DHT22;19139;49.372;8.580;2022-08-01T11:54:55;26.50;85.60
32787;DHT22;19139;49.372;8.580;2022-08-01T11:57:25;26.60;85.60
32787;DHT22;19139;49.372;8.580;2022-08-01T11:59:58;26.60;85.60
32787;DHT22;19139;49.372;8.580;2022-08-01T12:02:33;26.50;85.50
32787;DHT22;19139;49.372;8.580;2022-08-01T12:05:04;26.50;85.50
32787;DHT22;19139;49.372;8.580;2022-08-01T12:07:35;26.60;85.60
32787;DHT22;19139;49.372;8.580;2022-08-01T12:12:37;26.60;85.60
32787;DHT22;19139;49.372;8.580;2022-08-01T12:15:07;26.60;85.60
32787;DHT22;19139;49.372;8.580;2022-08-01T12:17:47;26.60;85.60
32787;DHT22;19139;49.372;8.580;2022-08-01T12:20:21;26.50;85.60
32787;DHT22;19139;49.372;8.580;2022-08-01T12:22:58;26.60;85.70
32787;DHT22;19139;49.372;8.580;2022-08-01T12:25:25;26.60;85.70
32787;DHT22;19139;49.372;8.580;2022-08-01T12:27:52;26.60;85.70
32787;DHT22;19139;49.372;8.580;2022-08-01T12:30:24;26.60;85.70
32787;DHT22;19139;49.372;8.580;2022-08-01T12:32:52;26.60;85.70
32787;DHT22;19139;49.372;8.580;2022-08-01T12:35:22;26.60;86.40
32787;DHT22;19139;49.372;8.580;2022-08-01T12:37:58;26.60;85.70
32787;DHT22;19139;49.372;8.580;2022-08-01T12:42:55;26.60;85.70
32787;DHT22;19139;49.372;8.580;2022-08-01T12:45:25;26.60;85.60
32787;DHT22;19139;49.372;8.580;2022-08-01T12:47:53;26.60;85.70
32787;DHT22;19139;49.372;8.580;2022-08-01T12:50:22;26.60;85.70
32787;DHT22;19139;49.372;8.580;2022-08-01T12:52:50;26.60;85.80
32787;DHT22;19139;49.372;8.580;2022-08-01T12:55:23;26.60;85.80
32787;DHT22;19139;49.372;8.580;2022-08-01T12:58:08;26.60;85.70
32787;DHT22;19139;49.372;8.580;2022-08-01T13:00:43;26.60;85.80
32787;DHT22;19139;49.372;8.580;2022-08-01T13:05:48;26.60;85.70
32787;DHT22;19139;49.372;8.580;2022-08-01T13:08:31;26.60;85.80
32787;DHT22;19139;49.372;8.580;2022-08-01T13:13:42;26.70;85.90
32787;DHT22;19139;49.372;8.580;2022-08-01T13:16:10;26.70;85.90
32787;DHT22;19139;49.372;8.580;2022-08-01T13:18:48;26.60;85.80
32787;DHT22;19139;49.372;8.580;2022-08-01T13:21:29;26.70;85.90
32787;DHT22;19139;49.372;8.580;2022-08-01T13:24:23;26.70;85.90
32787;DHT22;19139;49.372;8.580;2022-08-01T13:26:56;26.70;85.90
32787;DHT22;19139;49.372;8.580;2022-08-01T13:29:39;26.70;86.70
32787;DHT22;19139;49.372;8.580;2022-08-01T13:32:20;26.70;85.90
32787;DHT22;19139;49.372;8.580;2022-08-01T13:35:07;26.70;86.00
32787;DHT22;19139;49.372;8.580;2022-08-01T13:37:36;26.70;85.90
32787;DHT22;19139;49.372;8.580;2022-08-01T13:40:05;26.70;86.00
32787;DHT22;19139;49.372;8.580;2022-08-01T13:42:32;26.70;86.00
32787;DHT22;19139;49.372;8.580;2022-08-01T13:44:59;26.70;86.00
32787;DHT22;19139;49.372;8.580;2022-08-01T13:47:26;26.70;85.90
32787;DHT22;19139;49.372;8.580;2022-08-01T13:49:58;26.70;86.00
32787;DHT22;19139;49.372;8.580;2022-08-01T13:52:27;26.70;86.00
32787;DHT22;19139;49.372;8.580;2022-08-01T13:54:53;26.70;86.10
32787;DHT22;19139;49.372;8.580;2022-08-01T13:57:20;26.70;86.00
32787;DHT22;19139;49.372;8.580;2022-08-01T13:59:48;26.70;86.00
32787;DHT22;19139;49.372;8.580;2022-08-01T14:02:14;26.70;86.00
32787;DHT22;19139;49.372;8.580;2022-08-01T14:04:41;26.70;86.10
32787;DHT22;19139;49.372;8.580;2022-08-01T14:07:13;26.70;86.00
32787;DHT22;19139;49.372;8.580;2022-08-01T14:09:41;26.80;86.10
32787;DHT22;19139;49.372;8.580;2022-08-01T14:12:28;26.70;86.10
32787;DHT22;19139;49.372;8.580;2022-08-01T14:14:54;26.80;86.10
32787;DHT22;19139;49.372;8.580;2022-08-01T14:17:21;26.70;86.10
32787;DHT22;19139;49.372;8.580;2022-08-01T14:19:48;26.80;86.20
32787;DHT22;19139;49.372;8.580;2022-08-01T14:22:14;26.80;86.20
32787;DHT22;19139;49.372;8.580;2022-08-01T14:24:41;26.80;86.10
32787;DHT22;19139;49.372;8.580;2022-08-01T14:27:13;26.80;86.10
32787;DHT22;19139;49.372;8.580;2022-08-01T14:29:39;26.80;86.10
32787;DHT22;19139;49.372;8.580;2022-08-01T14:32:26;26.80;86.20
32787;DHT22;19139;49.372;8.580;2022-08-01T14:34:55;26.80;86.30
32787;DHT22;19139;49.372;8.580;2022-08-01T14:37:22;26.80;86.30
32787;DHT22;19139;49.372;8.580;2022-08-01T14:39:56;26.80;86.20
32787;DHT22;19139;49.372;8.580;2022-08-01T14:42:24;26.80;86.20
32787;DHT22;19139;49.372;8.580;2022-08-01T14:44:51;26.80;86.20
32787;DHT22;19139;49.372;8.580;2022-08-01T14:47:18;26.80;86.20
32787;DHT22;19139;49.372;8.580;2022-08-01T14:49:48;26.80;86.20
32787;DHT22;19139;49.372;8.580;2022-08-01T14:52:15;26.80;86.20
32787;DHT22;19139;49.372;8.580;2022-08-01T14:54:42;26.80;86.10
32787;DHT22;19139;49.372;8.580;2022-08-01T14:57:08;26.80;86.20
32787;DHT22;19139;49.372;8.580;2022-08-01T14:59:35;26.80;86.10
32787;DHT22;19139;49.372;8.580;2022-08-01T15:02:02;26.80;86.20
32787;DHT22;19139;49.372;8.580;2022-08-01T15:04:29;26.80;86.10
32787;DHT22;19139;49.372;8.580;2022-08-01T15:07:01;26.80;86.20
32787;DHT22;19139;49.372;8.580;2022-08-01T15:09:33;26.80;86.20
32787;DHT22;19139;49.372;8.580;2022-08-01T15:11:59;26.80;86.20
32787;DHT22;19139;49.372;8.580;2022-08-01T15:14:26;26.80;86.10
32787;DHT22;19139;49.372;8.580;2022-08-01T15:17:11;26.80;86.10
32787;DHT22;19139;49.372;8.580;2022-08-01T15:19:43;26.80;86.20
32787;DHT22;19139;49.372;8.580;2022-08-01T15:22:15;26.80;86.10
32787;DHT22;19139;49.372;8.580;2022-08-01T15:24:42;26.80;86.20
32787;DHT22;19139;49.372;8.580;2022-08-01T15:27:14;26.80;86.10
32787;DHT22;19139;49.372;8.580;2022-08-01T15:29:46;26.80;86.10
32787;DHT22;19139;49.372;8.580;2022-08-01T15:32:13;26.80;86.10
32787;DHT22;19139;49.372;8.580;2022-08-01T15:34:45;26.90;86.20
32787;DHT22;19139;49.372;8.580;2022-08-01T15:37:12;26.80;86.10
32787;DHT22;19139;49.372;8.580;2022-08-01T15:39:44;26.90;86.20
32787;DHT22;19139;49.372;8.580;2022-08-01T15:42:16;26.90;86.30
32787;DHT22;19139;49.372;8.580;2022-08-01T15:44:52;26.90;86.10
32787;DHT22;19139;49.372;8.580;2022-08-01T15:47:23;26.90;86.10
32787;DHT22;19139;49.372;8.580;2022-08-01T15:49:50;26.90;86.10
32787;DHT22;19139;49.372;8.580;2022-08-01T15:52:18;26.90;86.10
32787;DHT22;19139;49.372;8.580;2022-08-01T15:54:48;26.90;86.10
32787;DHT22;19139;49.372;8.580;2022-08-01T15:57:20;26.90;86.10
32787;DHT22;19139;49.372;8.580;2022-08-01T15:59:51;26.90;86.10
32787;DHT22;19139;49.372;8.580;2022-08-01T16:02:23;26.90;86.10
32787;DHT22;19139;49.372;8.580;2022-08-01T16:04:54;26.90;86.10
32787;DHT22;19139;49.372;8.580;2022-08-01T16:07:26;26.90;86.10
32787;DHT22;19139;49.372;8.580;2022-08-01T16:09:57;26.90;86.10
32787;DHT22;19139;49.372;8.580;2022-08-01T16:12:24;26.90;86.10
32787;DHT22;19139;49.372;8.580;2022-08-01T16:14:56;26.90;86.10
32787;DHT22;19139;49.372;8.580;2022-08-01T16:17:23;26.90;86.00
32787;DHT22;19139;49.372;8.580;2022-08-01T16:19:54;26.90;86.10
32787;DHT22;19139;49.372;8.580;2022-08-01T16:22:21;26.90;86.10
32787;DHT22;19139;49.372;8.580;2022-08-01T16:24:53;26.90;86.10
32787;DHT22;19139;49.372;8.580;2022-08-01T16:27:24;26.90;86.10
32787;DHT22;19139;49.372;8.580;2022-08-01T16:29:52;26.90;86.10
32787;DHT22;19139;49.372;8.580;2022-08-01T16:32:24;26.90;86.10
32787;DHT22;19139;49.372;8.580;2022-08-01T16:35:07;27.00;86.20
32787;DHT22;19139;49.372;8.580;2022-08-01T16:37:35;27.00;86.20
32787;DHT22;19139;49.372;8.580;2022-08-01T16:40:02;26.90;86.90
32787;DHT22;19139;49.372;8.580;2022-08-01T16:42:28;27.00;86.20
32787;DHT22;19139;49.372;8.580;2022-08-01T16:44:55;27.00;86.20